Aviation Digital Data Service (ADDS)

Output produced by METARs form (1058 UTC 07 December 2022)
found at http://www.aviationweather.gov/metar/data/
 
KBQP 071035Z AUTO 21005KT 10SM OVC012 21/20 A3016 RMK AO2 LTG DSNT N T02100204
KBQP 071015Z AUTO 21007KT 10SM OVC012 A3016 RMK AO2 LTG DSNT N
KBQP 070955Z AUTO 20008KT 10SM OVC012 21/20 A3015 RMK AO2 T02100203
KBQP 070935Z AUTO 21007KT 10SM -VCTSDZ BKN012 BKN110 21/20 A3015 RMK AO2 LTG DSNT NW T02100202
KBQP 070915Z AUTO 21007KT 10SM SCT035 SCT055 SCT100 21/20 A3014 RMK AO2 T02120200
KBQP 070835Z AUTO 21007KT 10SM -DZ BKN049 BKN055 BKN120 22/20 A3013 RMK AO2 T02150197
KBQP 070815Z AUTO 20005KT 10SM CLR A3013 RMK AO2
KBQP 070715Z AUTO 20008KT 10SM SCT041 SCT060 22/19 A3011 RMK AO2 T02190190
KBQP 070655Z AUTO 19006KT 10SM BKN041 BKN060 22/19 A3011 RMK AO2 T02200190
KBQP 070635Z AUTO 21007KT 10SM BKN043 OVC060 22/19 A3011 RMK AO2 T02210190
KBQP 070615Z AUTO 21006KT 10SM SCT047 OVC060 22/19 A3011 RMK AO2 T02220190
KBQP 070555Z AUTO 21008KT 10SM BKN047 OVC050 23/19 A3010 RMK AO2 6//// T02250190
KBQP 070535Z AUTO 21007KT 10SM SCT044 OVC050 23/19 A3010 RMK AO2 T02250190
KBQP 070515Z AUTO 20006G14KT 10SM OVC050 23/19 A3010 RMK AO2 T02270190
KBQP 070435Z AUTO 20006KT 10SM SCT036 OVC050 23/19 A3008 RMK AO2 T02290190
KBQP 070355Z AUTO 20008KT 10SM BKN038 OVC050 23/19 A3008 RMK AO2 T02300188
KBQP 070335Z AUTO 20005KT 10SM BKN036 OVC050 A3007 RMK AO2
KBQP 062340Z AUTO 22008KT 180V240 10SM BKN032 OVC039 A3003 RMK AO2
KBQP 062155Z AUTO 19007KT 10SM SCT039 OVC047 24/18 A3000 RMK AO2 T02430177
KBQP 062055Z AUTO 19007KT 10SM BKN047 24/18 A2998 RMK AO2 6//// T02430177
KBQP 062035Z AUTO 20007KT 10SM SCT036 OVC043 A2998 RMK AO2
KBQP 062010Z AUTO 20006G15KT 10SM OVC042 24/18 A2998 RMK AO2 T02400178
KBQP 061955Z AUTO 18008KT 10SM SCT029 OVC044 25/18 A2998 RMK AO2 T02450180
KBQP 061935Z AUTO 20007KT 10SM BKN029 BKN037 OVC044 24/18 A2998 RMK AO2 T02420179
KBQP 061910Z AUTO 20007KT 10SM BKN029 OVC044 25/18 A2998 RMK AO2 T02520183
KBQP 061855Z AUTO 21010G15KT 170V240 10SM BKN027 BKN034 OVC044 24/18 A2999 RMK AO2 T02400181
KBQP 061835Z AUTO 20007KT 10SM SCT025 SCT029 OVC044 24/19 A3000 RMK AO2 T02400185
KBQP 061815Z AUTO 19006KT 10SM SCT023 BKN035 OVC041 24/19 A3000 RMK AO2 T02410186
KBQP 061755Z AUTO 20007G14KT 180V240 10SM SCT023 BKN029 OVC041 24/19 A3000 RMK AO2 6//// T02380185
KBQP 061735Z AUTO 20008KT 10SM OVC023 23/19 A3002 RMK AO2 T02320185
KBQP 061715Z AUTO 20006KT 10SM OVC023 23/18 A3002 RMK AO2 T02330183
KBQP 061655Z AUTO 20007KT 10SM OVC023 23/19 A3003 RMK AO2 T02300185
KBQP 061635Z AUTO 21007KT 10SM BKN020 OVC025 23/19 A3003 RMK AO2 T02300186
KBQP 061615Z AUTO 19008KT 10SM BKN018 OVC025 23/19 A3003 RMK AO2 T02300187
KBQP 061555Z AUTO 19006G14KT 10SM OVC018 23/19 A3002 RMK AO2 T02260188
KBQP 061535Z AUTO 19007G14KT 10SM BKN016 OVC022 22/19 A3001 RMK AO2 T02220190
KBQP 061515Z AUTO 20008KT 10SM OVC016 22/19 A3001 RMK AO2 T02200191
KBQP 061435Z AUTO 18007KT 10SM BKN014 BKN019 22/20 A3000 RMK AO2 T02150195
KBQP 061415Z AUTO 19008KT 10SM BKN014 BKN028 A3000 RMK AO2
KBQP 061155Z AUTO 18006KT 20/20 A2996 RMK AO2 6//// 7//// T02040200 PWINO
KBQP 061135Z AUTO 19005KT 20/20 A2995 RMK AO2 T02030200 PWINO
KBQP 061110Z AUTO 17003KT A2995 RMK AO2 PWINO
KBQP 061015Z AUTO 18004KT BKN016 BKN024 OVC045 21/20 A2994 RMK AO2 T02050202 PWINO
KBQP 060855Z AUTO 19004KT BKN016 OVC036 A2994 RMK AO2 6//// PWINO
KBQP 060820Z AUTO 20005KT OVC014 A2994 RMK AO2 PWINO
KBQP 060800Z AUTO 20006KT OVC014 21/20 A2993 RMK AO2 T02110196 PWINO
KBQP 060740Z AUTO 19004KT OVC016 21/20 A2993 RMK AO2 T02110195 PWINO
KBQP 060715Z AUTO 21009KT OVC014 21/20 A2992 RMK AO2 T02110195 PWINO
KBQP 060655Z AUTO 20005KT OVC014 21/20 A2992 RMK AO2 T02120196 PWINO
KBQP 060635Z AUTO 19005KT OVC014 21/20 A2992 RMK AO2 T02110196 PWINO
KBQP 060615Z AUTO 19006KT OVC014 21/20 A2992 RMK AO2 T02080196 PWINO
KBQP 060555Z AUTO 19005KT OVC016 21/20 A2991 RMK AO2 6//// T02060197 PWINO
KBQP 060540Z AUTO 18006KT BKN016 20/20 A2990 RMK AO2 T02040197 PWINO
KBQP 060515Z AUTO 18006KT BKN016 20/20 A2990 RMK AO2 T02000196 PWINO
KBQP 060455Z AUTO 18006KT 20/20 A2990 RMK AO2 T02000195 PWINO
KBQP 060435Z AUTO 17005KT 20/20 A2990 RMK AO2 T01980195 PWINO
KBQP 060415Z AUTO 18005KT 20/20 A2990 RMK AO2 T01970195 PWINO
KBQP 060355Z AUTO 17005KT 20/20 A2990 RMK AO2 T01970195 PWINO
KBQP 060335Z AUTO 18005KT 20/20 A2990 RMK AO2 T01980195 PWINO
KBQP 060315Z AUTO 18004KT 20/20 A2990 RMK AO2 T01990195 PWINO
KBQP 060255Z AUTO 18006KT 20/20 A2989 RMK AO2 T02000196 PWINO
KBQP 060235Z AUTO 17004KT 20/20 A2989 RMK AO2 T02000197 PWINO
KBQP 060215Z AUTO 17004KT 20/20 A2989 RMK AO2 T02000196 PWINO
KBQP 060155Z AUTO 17004KT 20/20 A2989 RMK AO2 T02000197 PWINO
KBQP 060135Z AUTO 17004KT 20/20 A2990 RMK AO2 T02000196 PWINO
KBQP 060115Z AUTO 17003KT 20/20 A2990 RMK AO2 T01980195 PWINO
KBQP 060055Z AUTO 17003KT 20/20 A2989 RMK AO2 T01980195 PWINO
KBQP 060035Z AUTO 00000KT 20/20 A2989 RMK AO2 T02010197 PWINO
KBQP 060015Z AUTO 16003KT 20/20 A2988 RMK AO2 T02020197 PWINO
KBQP 052355Z AUTO 17004KT 21/20 A2988 RMK AO2 T02070196 10212 20166 PWINO
KBQP 052335Z AUTO 17003KT 10SM CLR 21/20 A2988 RMK AO2 T02070195
KBQP 052315Z AUTO 17004KT 10SM SCT024 SCT065 21/20 A2989 RMK AO2 T02100195
KBQP 052255Z AUTO 18004KT 10SM SCT022 SCT050 OVC065 21/20 A2989 RMK AO2 T02100195
KBQP 052235Z AUTO 16003KT 10SM SCT022 BKN049 OVC055 21/20 A2990 RMK AO2 T02070196
KBQP 052215Z AUTO 00000KT 10SM SCT022 BKN042 OVC060 21/20 A2990 RMK AO2 T02070196
KBQP 052155Z AUTO 15003KT 10SM SCT024 SCT035 OVC060 21/20 A2990 RMK AO2 T02100195
KBQP 052135Z AUTO 16004KT 10SM SCT024 SCT036 OVC060 21/20 A2989 RMK AO2 T02100195
KBQP 052115Z AUTO 19003KT 10SM SCT024 BKN038 OVC060 21/20 A2989 RMK AO2 T02120195
KBQP 052055Z AUTO 18004KT 10SM SCT013 BKN024 OVC060 21/20 A2989 RMK AO2 T02070195
KBQP 052035Z AUTO 18004KT 10SM BKN013 BKN018 OVC032 21/20 A2990 RMK AO2 T02050195
KBQP 052015Z AUTO 18005KT 10SM OVC010 20/20 A2990 RMK AO2 T02020195
KBQP 051950Z AUTO 19005KT 7SM OVC010 20/20 A2990 RMK AO2 T02000195
KBQP 051935Z AUTO 18007KT 7SM OVC010 20/20 A2990 RMK AO2 T02000195
KBQP 051915Z AUTO 20004KT 7SM OVC010 20/19 A2991 RMK AO2 T01970193
KBQP 051855Z AUTO 19005KT 7SM OVC010 19/19 A2992 RMK AO2 T01900187
KBQP 051835Z AUTO 18003KT 5SM BR OVC008 18/18 A2993 RMK AO2 T01810178
KBQP 051815Z AUTO 17004KT 4SM BR OVC006 17/17 A2994 RMK AO2 T01720170
KBQP 051755Z AUTO 18004KT 3SM BR OVC004 17/16 A2995 RMK AO2 T01660163 10166 20098
KBQP 051735Z AUTO 19004KT 1 3/4SM BR OVC002 16/16 A2996 RMK AO2 T01600156
KBQP 051715Z AUTO 19004KT 1/2SM FG OVC002 15/15 A2997 RMK AO2 T01520150
KBQP 051655Z AUTO 19004KT 1/2SM FG OVC002 15/14 A2998 RMK AO2 T01460143
KBQP 051635Z AUTO 17003KT 1/2SM FG OVC002 14/14 A2999 RMK AO2 T01400137
KBQP 051615Z AUTO 17004KT 1/2SM FG OVC002 14/14 A3000 RMK AO2 T01370135
KBQP 051555Z AUTO 18003KT 1/2SM FG OVC002 13/13 A3000 RMK AO2 T01320129
KBQP 051535Z AUTO 17003KT 1/2SM FG OVC002 13/13 A3000 RMK AO2 T01290126
KBQP 051515Z AUTO 00000KT 1/2SM FG OVC002 12/12 A2999 RMK AO2 T01200116
KBQP 051455Z AUTO 00000KT 1/4SM FG OVC002 12/11 A3000 RMK AO2 T01150111
KBQP 051435Z AUTO 00000KT 1/2SM FG OVC002 11/11 A3000 RMK AO2 T01110109
KBQP 051415Z AUTO 00000KT 1/4SM FG OVC002 11/11 A3000 RMK AO2 T01090106
KBQP 051355Z AUTO 00000KT 1/4SM FG OVC002 11/10 A3000 RMK AO2 T01060103
KBQP 051335Z AUTO 00000KT 1/4SM FG OVC002 11/10 A3000 RMK AO2 T01050101
KBQP 051315Z AUTO 00000KT 1/2SM FG OVC002 10/10 A3000 RMK AO2 T01010098
KBQP 051255Z AUTO 00000KT 3/4SM BR OVC002 10/10 A3000 RMK AO2 T01000097
KBQP 051235Z AUTO 00000KT 2SM BR OVC002 10/10 A3000 RMK AO2 T01010097
KBQP 051215Z AUTO 00000KT 3SM BR OVC004 10/10 A3000 RMK AO2 T01000096
KBQP 051155Z AUTO 00000KT 5SM BR OVC004 10/10 A2999 RMK AO2 60001 70004 T00970095 10097 20082
KBQP 051135Z AUTO 00000KT 5SM BR OVC004 10/09 A3000 RMK AO2 T00970094
KBQP 051115Z AUTO 00000KT 5SM BR OVC006 10/09 A3000 RMK AO2 T00950092
KBQP 051055Z AUTO 00000KT 5SM BR OVC008 10/09 A3000 RMK AO2 T00950092
KBQP 051035Z AUTO 00000KT 5SM BR SCT003 OVC008 10/09 A3000 RMK AO2 T00950091
KBQP 051015Z AUTO 00000KT 5SM BR SCT003 OVC010 09/09 A3001 RMK AO2 T00920090
KBQP 050955Z AUTO 00000KT 5SM BR SCT003 OVC012 09/09 A3002 RMK AO2 T00930090
KBQP 050935Z AUTO 00000KT 5SM BR SCT003 OVC012 09/09 A3003 RMK AO2 T00920090
KBQP 050915Z AUTO 00000KT 5SM BR SCT003 OVC012 09/09 A3004 RMK AO2 T00920089
KBQP 050855Z AUTO 00000KT 5SM BR BKN003 OVC012 09/09 A3004 RMK AO2 P0001 60001 T00900086
KBQP 050835Z AUTO 08003KT 4SM BR BKN003 OVC012 09/09 A3004 RMK AO2 P0001 T00900086
KBQP 050815Z AUTO 00000KT 5SM BR BKN003 OVC060 09/09 A3005 RMK AO2 T00890086
KBQP 050755Z AUTO 00000KT 4SM BR BKN003 OVC060 09/09 A3005 RMK AO2 T00870085
KBQP 050735Z AUTO 00000KT 5SM BR OVC003 09/08 A3006 RMK AO2 T00860083
KBQP 050715Z AUTO 00000KT 4SM BR OVC003 09/08 A3005 RMK AO2 T00850082
KBQP 050655Z AUTO 00000KT 4SM BR BKN003 BKN009 OVC049 09/08 A3005 RMK AO2 T00850082
KBQP 050635Z AUTO 08003KT 3SM BR SCT003 BKN009 OVC047 09/08 A3008 RMK AO2 T00850081
KBQP 050615Z AUTO 00000KT 5SM BR OVC003 08/08 A3010 RMK AO2 T00830080
KBQP 050555Z AUTO 00000KT 5SM BR BKN003 OVC049 08/08 A3010 RMK AO2 T00820079 10082 20075 400840058
KBQP 050535Z AUTO 00000KT 5SM BR OVC003 08/08 A3011 RMK AO2 T00810078
KBQP 050515Z AUTO 00000KT 5SM BR BKN003 BKN010 OVC029 08/08 A3013 RMK AO2 T00800077
KBQP 050455Z AUTO 00000KT 5SM BR BKN005 BKN010 OVC050 08/08 A3013 RMK AO2 T00800076
KBQP 050435Z AUTO 00000KT 7SM OVC005 08/08 A3013 RMK AO2 T00810078
KBQP 050415Z AUTO 00000KT 5SM BR OVC005 08/08 A3014 RMK AO2 T00800076
KBQP 050355Z AUTO 00000KT 5SM BR OVC005 08/08 A3015 RMK AO2 T00790075
KBQP 050335Z AUTO 00000KT 7SM OVC005 08/08 A3015 RMK AO2 T00800076
KBQP 050315Z AUTO 00000KT 7SM OVC005 08/08 A3015 RMK AO2 T00770075
KBQP 050255Z AUTO 00000KT 7SM BKN007 OVC011 08/08 A3015 RMK AO2 T00800076
KBQP 050235Z AUTO 00000KT 7SM SCT004 OVC013 08/08 A3016 RMK AO2 T00780075
KBQP 050215Z AUTO 00000KT 10SM OVC013 08/08 A3017 RMK AO2 T00770075
KBQP 050155Z AUTO 00000KT 10SM OVC011 08/07 A3016 RMK AO2 T00760073
KBQP 050135Z AUTO 00000KT 10SM SCT004 OVC011 08/07 A3017 RMK AO2 T00750072
KBQP 050115Z AUTO 00000KT 10SM BKN004 OVC009 08/07 A3017 RMK AO2 T00750072
KBQP 050055Z AUTO 00000KT 10SM OVC004 08/07 A3018 RMK AO2 T00760073
KBQP 050035Z AUTO 00000KT 10SM OVC004 08/07 A3018 RMK AO2 T00760073
KBQP 050015Z AUTO 06004KT 7SM OVC004 08/08 A3019 RMK AO2 T00770075
KBQP 042355Z AUTO 06005KT 5SM BR OVC004 08/08 A3019 RMK AO2 60001 T00820080 10084 20064
KBQP 042330Z AUTO 00000KT 3SM BR OVC004 08/08 A3020 RMK AO2 T00830080
KBQP 042315Z AUTO 00000KT 2 1/2SM BR OVC004 08/08 A3020 RMK AO2 T00830080
KBQP 042255Z AUTO 00000KT 2SM BR OVC004 08/08 A3020 RMK AO2 P0001 T00820080
KBQP 042235Z AUTO 00000KT 1 1/4SM BR OVC004 08/08 A3021 RMK AO2 T00820079
KBQP 042215Z AUTO 00000KT 1 1/2SM BR OVC004 08/08 A3020 RMK AO2 T00810078
KBQP 042155Z AUTO 00000KT 2SM BR OVC004 08/08 A3020 RMK AO2 T00810078
KBQP 042135Z AUTO 00000KT 2SM BR OVC004 08/08 A3020 RMK AO2 T00800077
KBQP 042115Z AUTO 00000KT 2 1/2SM BR OVC004 08/08 A3018 RMK AO2 T00800077
KBQP 042055Z AUTO 00000KT 4SM BR OVC004 08/08 A3019 RMK AO2 T00780075
KBQP 042035Z AUTO 00000KT 5SM BR OVC004 08/08 A3020 RMK AO2 T00780075
KBQP 042015Z AUTO 00000KT 7SM OVC004 08/07 A3021 RMK AO2 T00770074
KBQP 041955Z AUTO 00000KT 7SM OVC004 08/07 A3021 RMK AO2 T00750072
KBQP 041935Z AUTO 00000KT 5SM BR OVC004 08/07 A3021 RMK AO2 T00750071
KBQP 041915Z AUTO 00000KT 07/07 A3022 RMK AO2 T00720070 PWINO
KBQP 041855Z AUTO 00000KT 3SM BR OVC004 07/07 A3024 RMK AO2 T00720069
KBQP 041835Z AUTO 00000KT 10SM OVC004 07/07 A3026 RMK AO2 T00700067
KBQP 041815Z AUTO 00000KT 5SM BR OVC004 07/06 A3026 RMK AO2 T00660064
KBQP 041755Z AUTO 00000KT 2 1/2SM BR BKN006 OVC009 07/06 A3029 RMK AO2 P0002 60002 T00660063 10075 20058
KBQP 041730Z AUTO 00000KT 2 1/2SM RA BKN006 OVC009 06/06 A3032 RMK AO2 T00590056
KBQP 041715Z AUTO 00000KT 2 1/2SM BR OVC009 06/06 A3033 RMK AO2 T00590055
KBQP 041635Z AUTO 32003KT 10SM OVC011 07/03 A3035 RMK AO2 T00670033
KBQP 041615Z AUTO 32006KT 10SM OVC011 07/03 A3035 RMK AO2 T00700031
KBQP 041555Z AUTO 34004KT 10SM OVC011 07/03 A3035 RMK AO2 T00700026
KBQP 041535Z AUTO 33003KT 7SM OVC011 07/03 A3035 RMK AO2 T00710026
KBQP 041515Z AUTO 00000KT 10SM OVC013 07/03 A3035 RMK AO2 T00740025
KBQP 041455Z AUTO 00000KT 10SM OVC013 07/03 A3035 RMK AO2 T00720025
KBQP 041435Z AUTO 00000KT 10SM OVC013 07/02 A3035 RMK AO2 T00720024
KBQP 041415Z AUTO 34003KT 10SM OVC013 07/02 A3035 RMK AO2 T00720022
KBQP 041355Z AUTO 00000KT 10SM OVC011 07/02 A3034 RMK AO2 T00700020
KBQP 041335Z AUTO 06003KT 10SM BKN011 OVC045 07/02 A3033 RMK AO2 T00700021
KBQP 041315Z AUTO 00000KT 10SM SCT011 SCT038 OVC045 07/02 A3032 RMK AO2 T00680021
KBQP 041255Z AUTO 07004KT 10SM OVC011 07/02 A3033 RMK AO2 T00680021
KBQP 041235Z AUTO 00000KT 10SM OVC011 07/02 A3035 RMK AO2 T00680021
KBQP 041215Z AUTO 04003KT 10SM OVC011 07/02 A3033 RMK AO2 T00690020
KBQP 041155Z AUTO 00000KT 10SM SCT011 OVC035 07/02 A3032 RMK AO2 7//// T00680022 10078 20060
KBQP 041135Z AUTO 03003KT 10SM SCT013 OVC035 07/02 A3032 RMK AO2 T00680021
KBQP 041115Z AUTO 00000KT 10SM SCT013 OVC035 07/02 A3033 RMK AO2 T00680022